Deadhorse, Alaska
Current Conditions -  °F | °C
As of 11:53 AM on Friday 19 Dec 2014 (Local Time) from PASC Reporting Station
Blowing Snow Blowing Snow  
Wind Chill: -18°   Ceiling: 2200
Heat Index:   Visibility: 5mi
Dew Point: -4°   Wind: 16mph
Humidity: 76%   Direction: 60°ENE
Pressure: 29.74"   Gusts: NA
Location:  70.2°N, 148.46°W
Report Text: PASC 192053Z 06014KT 5SM BLSN FEW010 OVC022 M17/M20 A2974 RMK AO2 SLP072 I1000 I3000 T11671200 56004
Loading
Personal Weather Stations






























Interactive Weather Map New forecast layout! Learn more

10-Day Weather Forecast

Advertisements
Track Severe Weather on mobile